sensor_id;sensor_type;location;lat;lon;timestamp;P1;durP1;ratioP1;P2;durP2;ratioP2
36799;SDS011;22752;51.960;5.886;2024-01-30T00:01:22;11.03;;;8.00;;
36799;SDS011;22752;51.960;5.886;2024-01-30T00:03:48;10.93;;;8.03;;
36799;SDS011;22752;51.960;5.886;2024-01-30T00:06:17;9.97;;;8.00;;
36799;SDS011;22752;51.960;5.886;2024-01-30T00:08:44;13.60;;;8.77;;
36799;SDS011;22752;51.960;5.886;2024-01-30T00:11:11;10.33;;;7.67;;
36799;SDS011;22752;51.960;5.886;2024-01-30T00:13:37;11.87;;;8.10;;
36799;SDS011;22752;51.960;5.886;2024-01-30T00:16:02;10.03;;;7.83;;
36799;SDS011;22752;51.960;5.886;2024-01-30T00:18:29;11.97;;;7.80;;
36799;SDS011;22752;51.960;5.886;2024-01-30T00:20:54;10.53;;;8.03;;
36799;SDS011;22752;51.960;5.886;2024-01-30T00:23:20;9.87;;;8.07;;
36799;SDS011;22752;51.960;5.886;2024-01-30T00:25:45;15.63;;;8.57;;
36799;SDS011;22752;51.960;5.886;2024-01-30T00:28:11;12.43;;;8.17;;
36799;SDS011;22752;51.960;5.886;2024-01-30T00:30:37;13.43;;;8.93;;
36799;SDS011;22752;51.960;5.886;2024-01-30T00:33:02;10.87;;;8.07;;
36799;SDS011;22752;51.960;5.886;2024-01-30T00:35:28;11.97;;;9.40;;
36799;SDS011;22752;51.960;5.886;2024-01-30T00:37:54;12.80;;;8.60;;
36799;SDS011;22752;51.960;5.886;2024-01-30T00:40:20;17.13;;;11.03;;
36799;SDS011;22752;51.960;5.886;2024-01-30T00:42:45;13.30;;;10.07;;
36799;SDS011;22752;51.960;5.886;2024-01-30T00:45:11;11.03;;;9.70;;
36799;SDS011;22752;51.960;5.886;2024-01-30T00:47:38;13.67;;;9.93;;
36799;SDS011;22752;51.960;5.886;2024-01-30T00:50:04;12.50;;;9.40;;
36799;SDS011;22752;51.960;5.886;2024-01-30T00:52:30;14.50;;;10.57;;
36799;SDS011;22752;51.960;5.886;2024-01-30T00:54:56;16.27;;;9.60;;
36799;SDS011;22752;51.960;5.886;2024-01-30T00:57:21;17.47;;;10.40;;
36799;SDS011;22752;51.960;5.886;2024-01-30T00:59:47;13.13;;;9.63;;
36799;SDS011;22752;51.960;5.886;2024-01-30T01:02:12;11.73;;;9.17;;
36799;SDS011;22752;51.960;5.886;2024-01-30T01:04:40;12.03;;;8.53;;
36799;SDS011;22752;51.960;5.886;2024-01-30T01:07:05;17.30;;;9.30;;
36799;SDS011;22752;51.960;5.886;2024-01-30T01:09:31;11.63;;;9.03;;
36799;SDS011;22752;51.960;5.886;2024-01-30T01:11:56;13.10;;;9.40;;
36799;SDS011;22752;51.960;5.886;2024-01-30T01:14:22;12.43;;;9.07;;
36799;SDS011;22752;51.960;5.886;2024-01-30T01:16:48;11.77;;;8.03;;
36799;SDS011;22752;51.960;5.886;2024-01-30T01:19:13;11.67;;;8.87;;
36799;SDS011;22752;51.960;5.886;2024-01-30T01:21:39;12.30;;;8.33;;
36799;SDS011;22752;51.960;5.886;2024-01-30T01:24:05;12.17;;;8.47;;
36799;SDS011;22752;51.960;5.886;2024-01-30T01:26:30;11.87;;;9.30;;
36799;SDS011;22752;51.960;5.886;2024-01-30T01:28:56;11.90;;;8.67;;
36799;SDS011;22752;51.960;5.886;2024-01-30T01:31:21;12.13;;;8.97;;
36799;SDS011;22752;51.960;5.886;2024-01-30T01:33:49;17.47;;;8.90;;
36799;SDS011;22752;51.960;5.886;2024-01-30T01:36:15;12.40;;;9.33;;
36799;SDS011;22752;51.960;5.886;2024-01-30T01:38:41;15.00;;;9.67;;
36799;SDS011;22752;51.960;5.886;2024-01-30T01:41:06;11.97;;;9.40;;
36799;SDS011;22752;51.960;5.886;2024-01-30T01:43:32;11.37;;;8.70;;
36799;SDS011;22752;51.960;5.886;2024-01-30T01:45:58;15.50;;;9.73;;
36799;SDS011;22752;51.960;5.886;2024-01-30T01:48:23;12.07;;;8.90;;
36799;SDS011;22752;51.960;5.886;2024-01-30T01:50:49;13.10;;;8.87;;
36799;SDS011;22752;51.960;5.886;2024-01-30T01:53:16;13.20;;;9.07;;
36799;SDS011;22752;51.960;5.886;2024-01-30T01:55:42;14.90;;;8.43;;
36799;SDS011;22752;51.960;5.886;2024-01-30T01:58:08;11.80;;;8.97;;
36799;SDS011;22752;51.960;5.886;2024-01-30T02:00:35;12.60;;;8.73;;
36799;SDS011;22752;51.960;5.886;2024-01-30T02:03:04;11.67;;;8.60;;
36799;SDS011;22752;51.960;5.886;2024-01-30T02:05:31;14.83;;;10.07;;
36799;SDS011;22752;51.960;5.886;2024-01-30T02:07:57;14.13;;;10.73;;
36799;SDS011;22752;51.960;5.886;2024-01-30T02:10:23;13.53;;;10.13;;
36799;SDS011;22752;51.960;5.886;2024-01-30T02:12:49;15.03;;;10.00;;
36799;SDS011;22752;51.960;5.886;2024-01-30T02:15:15;15.60;;;9.73;;
36799;SDS011;22752;51.960;5.886;2024-01-30T02:17:40;13.33;;;9.70;;
36799;SDS011;22752;51.960;5.886;2024-01-30T02:20:06;12.17;;;8.40;;
36799;SDS011;22752;51.960;5.886;2024-01-30T02:22:32;13.77;;;8.73;;
36799;SDS011;22752;51.960;5.886;2024-01-30T02:25:00;13.57;;;8.63;;
36799;SDS011;22752;51.960;5.886;2024-01-30T02:27:26;13.03;;;8.87;;
36799;SDS011;22752;51.960;5.886;2024-01-30T02:29:51;12.77;;;8.40;;
36799;SDS011;22752;51.960;5.886;2024-01-30T02:32:17;10.77;;;8.33;;
36799;SDS011;22752;51.960;5.886;2024-01-30T02:34:43;11.97;;;8.70;;
36799;SDS011;22752;51.960;5.886;2024-01-30T02:37:08;10.87;;;8.33;;
36799;SDS011;22752;51.960;5.886;2024-01-30T02:39:34;11.43;;;8.60;;
36799;SDS011;22752;51.960;5.886;2024-01-30T02:41:59;11.80;;;9.30;;
36799;SDS011;22752;51.960;5.886;2024-01-30T02:44:25;13.60;;;9.40;;
36799;SDS011;22752;51.960;5.886;2024-01-30T02:46:51;10.47;;;8.43;;
36799;SDS011;22752;51.960;5.886;2024-01-30T02:49:19;11.60;;;8.33;;
36799;SDS011;22752;51.960;5.886;2024-01-30T02:51:44;11.00;;;8.27;;
36799;SDS011;22752;51.960;5.886;2024-01-30T02:54:10;13.47;;;8.70;;
36799;SDS011;22752;51.960;5.886;2024-01-30T02:56:36;12.10;;;8.23;;
36799;SDS011;22752;51.960;5.886;2024-01-30T02:59:01;11.40;;;8.03;;
36799;SDS011;22752;51.960;5.886;2024-01-30T03:01:27;11.17;;;8.80;;
36799;SDS011;22752;51.960;5.886;2024-01-30T03:03:52;12.17;;;8.50;;
36799;SDS011;22752;51.960;5.886;2024-01-30T03:06:18;10.93;;;8.13;;
36799;SDS011;22752;51.960;5.886;2024-01-30T03:08:45;11.30;;;8.00;;
36799;SDS011;22752;51.960;5.886;2024-01-30T03:11:10;11.40;;;8.13;;
36799;SDS011;22752;51.960;5.886;2024-01-30T03:13:36;10.30;;;7.77;;
36799;SDS011;22752;51.960;5.886;2024-01-30T03:16:02;9.87;;;7.50;;
36799;SDS011;22752;51.960;5.886;2024-01-30T03:18:27;10.07;;;7.90;;
36799;SDS011;22752;51.960;5.886;2024-01-30T03:20:53;13.00;;;9.03;;
36799;SDS011;22752;51.960;5.886;2024-01-30T03:23:19;12.07;;;7.97;;
36799;SDS011;22752;51.960;5.886;2024-01-30T03:25:44;11.73;;;8.67;;
36799;SDS011;22752;51.960;5.886;2024-01-30T03:28:10;10.87;;;7.93;;
36799;SDS011;22752;51.960;5.886;2024-01-30T03:30:36;13.07;;;9.03;;
36799;SDS011;22752;51.960;5.886;2024-01-30T03:33:02;12.03;;;9.13;;
36799;SDS011;22752;51.960;5.886;2024-01-30T03:35:27;16.27;;;10.30;;
36799;SDS011;22752;51.960;5.886;2024-01-30T03:37:53;14.93;;;9.67;;
36799;SDS011;22752;51.960;5.886;2024-01-30T03:40:18;12.97;;;9.20;;
36799;SDS011;22752;51.960;5.886;2024-01-30T03:42:44;13.83;;;9.33;;
36799;SDS011;22752;51.960;5.886;2024-01-30T03:45:10;12.73;;;9.23;;
36799;SDS011;22752;51.960;5.886;2024-01-30T03:47:36;15.27;;;10.37;;
36799;SDS011;22752;51.960;5.886;2024-01-30T03:50:01;14.93;;;10.53;;
36799;SDS011;22752;51.960;5.886;2024-01-30T03:52:27;15.53;;;9.77;;
36799;SDS011;22752;51.960;5.886;2024-01-30T03:54:53;12.80;;;8.73;;
36799;SDS011;22752;51.960;5.886;2024-01-30T03:57:18;12.43;;;9.20;;
36799;SDS011;22752;51.960;5.886;2024-01-30T03:59:44;10.53;;;8.37;;
36799;SDS011;22752;51.960;5.886;2024-01-30T04:02:10;11.03;;;8.90;;
36799;SDS011;22752;51.960;5.886;2024-01-30T04:04:36;12.87;;;8.70;;
36799;SDS011;22752;51.960;5.886;2024-01-30T04:07:02;10.87;;;8.50;;
36799;SDS011;22752;51.960;5.886;2024-01-30T04:09:28;12.27;;;9.00;;
36799;SDS011;22752;51.960;5.886;2024-01-30T04:11:54;11.87;;;8.63;;
36799;SDS011;22752;51.960;5.886;2024-01-30T04:14:19;10.20;;;8.17;;
36799;SDS011;22752;51.960;5.886;2024-01-30T04:16:45;10.70;;;9.00;;
36799;SDS011;22752;51.960;5.886;2024-01-30T04:19:11;12.10;;;8.90;;
36799;SDS011;22752;51.960;5.886;2024-01-30T04:21:36;13.20;;;9.93;;
36799;SDS011;22752;51.960;5.886;2024-01-30T04:24:02;12.13;;;9.20;;
36799;SDS011;22752;51.960;5.886;2024-01-30T04:26:28;12.30;;;9.47;;
36799;SDS011;22752;51.960;5.886;2024-01-30T04:28:53;12.63;;;10.20;;
36799;SDS011;22752;51.960;5.886;2024-01-30T04:31:19;11.80;;;9.10;;
36799;SDS011;22752;51.960;5.886;2024-01-30T04:33:45;13.07;;;9.53;;
36799;SDS011;22752;51.960;5.886;2024-01-30T04:36:10;13.60;;;8.90;;
36799;SDS011;22752;51.960;5.886;2024-01-30T04:38:36;15.10;;;9.13;;
36799;SDS011;22752;51.960;5.886;2024-01-30T04:41:03;13.23;;;8.93;;
36799;SDS011;22752;51.960;5.886;2024-01-30T04:43:29;14.10;;;9.77;;
36799;SDS011;22752;51.960;5.886;2024-01-30T04:45:55;12.27;;;9.50;;
36799;SDS011;22752;51.960;5.886;2024-01-30T04:48:21;11.87;;;9.23;;
36799;SDS011;22752;51.960;5.886;2024-01-30T04:50:46;12.97;;;9.37;;
36799;SDS011;22752;51.960;5.886;2024-01-30T04:53:12;14.50;;;9.93;;
36799;SDS011;22752;51.960;5.886;2024-01-30T04:55:38;12.93;;;9.50;;
36799;SDS011;22752;51.960;5.886;2024-01-30T04:58:03;15.87;;;9.70;;
36799;SDS011;22752;51.960;5.886;2024-01-30T05:00:29;12.77;;;9.87;;
36799;SDS011;22752;51.960;5.886;2024-01-30T05:02:55;13.63;;;9.80;;
36799;SDS011;22752;51.960;5.886;2024-01-30T05:05:21;15.13;;;9.40;;
36799;SDS011;22752;51.960;5.886;2024-01-30T05:07:47;11.83;;;8.63;;
36799;SDS011;22752;51.960;5.886;2024-01-30T05:10:13;13.10;;;9.30;;
36799;SDS011;22752;51.960;5.886;2024-01-30T05:12:39;15.10;;;9.90;;
36799;SDS011;22752;51.960;5.886;2024-01-30T05:15:05;15.70;;;11.10;;
36799;SDS011;22752;51.960;5.886;2024-01-30T05:17:31;16.43;;;10.90;;
36799;SDS011;22752;51.960;5.886;2024-01-30T05:19:57;13.63;;;10.10;;
36799;SDS011;22752;51.960;5.886;2024-01-30T05:22:22;14.57;;;10.53;;
36799;SDS011;22752;51.960;5.886;2024-01-30T05:24:48;12.10;;;8.80;;
36799;SDS011;22752;51.960;5.886;2024-01-30T05:27:13;11.97;;;9.23;;
36799;SDS011;22752;51.960;5.886;2024-01-30T05:29:39;13.20;;;10.03;;
36799;SDS011;22752;51.960;5.886;2024-01-30T05:32:06;13.13;;;9.97;;
36799;SDS011;22752;51.960;5.886;2024-01-30T05:34:32;13.40;;;10.27;;
36799;SDS011;22752;51.960;5.886;2024-01-30T05:36:57;11.83;;;9.10;;
36799;SDS011;22752;51.960;5.886;2024-01-30T05:39:23;14.10;;;8.70;;
36799;SDS011;22752;51.960;5.886;2024-01-30T05:41:49;14.13;;;9.00;;
36799;SDS011;22752;51.960;5.886;2024-01-30T05:44:15;17.37;;;10.37;;
36799;SDS011;22752;51.960;5.886;2024-01-30T05:46:40;13.90;;;9.40;;
36799;SDS011;22752;51.960;5.886;2024-01-30T05:49:06;15.57;;;10.77;;
36799;SDS011;22752;51.960;5.886;2024-01-30T05:51:32;16.00;;;9.57;;
36799;SDS011;22752;51.960;5.886;2024-01-30T07:16:45;14.20;;;8.70;;
36799;SDS011;22752;51.960;5.886;2024-01-30T07:19:11;15.50;;;8.17;;
36799;SDS011;22752;51.960;5.886;2024-01-30T07:40:09;12.13;;;7.73;;
36799;SDS011;22752;51.960;5.886;2024-01-30T07:42:35;10.20;;;7.47;;
36799;SDS011;22752;51.960;5.886;2024-01-30T07:45:01;12.23;;;8.37;;
36799;SDS011;22752;51.960;5.886;2024-01-30T07:47:27;12.47;;;9.13;;
36799;SDS011;22752;51.960;5.886;2024-01-30T07:49:52;18.50;;;9.40;;
36799;SDS011;22752;51.960;5.886;2024-01-30T07:52:19;13.77;;;9.27;;
36799;SDS011;22752;51.960;5.886;2024-01-30T07:54:47;16.10;;;9.77;;
36799;SDS011;22752;51.960;5.886;2024-01-30T07:57:14;13.57;;;9.00;;
36799;SDS011;22752;51.960;5.886;2024-01-30T07:59:41;14.07;;;8.97;;
36799;SDS011;22752;51.960;5.886;2024-01-30T08:02:08;14.50;;;9.40;;
36799;SDS011;22752;51.960;5.886;2024-01-30T08:04:35;13.80;;;9.50;;
36799;SDS011;22752;51.960;5.886;2024-01-30T08:07:00;14.23;;;9.60;;
36799;SDS011;22752;51.960;5.886;2024-01-30T08:09:26;11.50;;;8.90;;
36799;SDS011;22752;51.960;5.886;2024-01-30T08:11:52;14.67;;;9.00;;
36799;SDS011;22752;51.960;5.886;2024-01-30T08:14:17;11.10;;;8.63;;
36799;SDS011;22752;51.960;5.886;2024-01-30T08:16:43;12.77;;;8.70;;
36799;SDS011;22752;51.960;5.886;2024-01-30T08:19:09;14.80;;;8.30;;
36799;SDS011;22752;51.960;5.886;2024-01-30T08:21:34;14.53;;;8.43;;
36799;SDS011;22752;51.960;5.886;2024-01-30T08:24:04;16.60;;;8.13;;
36799;SDS011;22752;51.960;5.886;2024-01-30T08:26:30;15.47;;;9.00;;
36799;SDS011;22752;51.960;5.886;2024-01-30T08:28:59;13.13;;;8.93;;
36799;SDS011;22752;51.960;5.886;2024-01-30T08:31:25;11.00;;;8.20;;
36799;SDS011;22752;51.960;5.886;2024-01-30T08:33:50;13.10;;;7.97;;
36799;SDS011;22752;51.960;5.886;2024-01-30T08:36:16;11.77;;;8.17;;
36799;SDS011;22752;51.960;5.886;2024-01-30T11:35:39;15.77;;;9.13;;
36799;SDS011;22752;51.960;5.886;2024-01-30T11:38:10;15.10;;;9.67;;
36799;SDS011;22752;51.960;5.886;2024-01-30T11:40:37;14.27;;;9.27;;
36799;SDS011;22752;51.960;5.886;2024-01-30T11:43:03;19.73;;;9.67;;
36799;SDS011;22752;51.960;5.886;2024-01-30T11:45:30;15.60;;;8.77;;
36799;SDS011;22752;51.960;5.886;2024-01-30T11:47:57;13.67;;;8.60;;
36799;SDS011;22752;51.960;5.886;2024-01-30T11:50:25;17.00;;;8.50;;
36799;SDS011;22752;51.960;5.886;2024-01-30T11:52:51;18.40;;;8.80;;
36799;SDS011;22752;51.960;5.886;2024-01-30T11:55:16;14.67;;;8.70;;
36799;SDS011;22752;51.960;5.886;2024-01-30T11:57:43;13.02;;;7.80;;
36799;SDS011;22752;51.960;5.886;2024-01-30T12:00:15;15.03;;;7.77;;
36799;SDS011;22752;51.960;5.886;2024-01-30T12:02:43;16.17;;;8.10;;
36799;SDS011;22752;51.960;5.886;2024-01-30T12:05:13;16.73;;;7.78;;
36799;SDS011;22752;51.960;5.886;2024-01-30T12:07:39;13.60;;;8.48;;
36799;SDS011;22752;51.960;5.886;2024-01-30T12:10:05;13.75;;;8.30;;
36799;SDS011;22752;51.960;5.886;2024-01-30T12:12:32;14.70;;;7.18;;
36799;SDS011;22752;51.960;5.886;2024-01-30T12:14:58;13.68;;;7.75;;
36799;SDS011;22752;51.960;5.886;2024-01-30T12:20:02;12.43;;;7.30;;
36799;SDS011;22752;51.960;5.886;2024-01-30T12:22:38;15.68;;;8.68;;
36799;SDS011;22752;51.960;5.886;2024-01-30T12:25:09;17.02;;;8.00;;
36799;SDS011;22752;51.960;5.886;2024-01-30T12:27:35;18.85;;;8.55;;
36799;SDS011;22752;51.960;5.886;2024-01-30T12:30:05;12.85;;;7.95;;
36799;SDS011;22752;51.960;5.886;2024-01-30T12:32:37;14.70;;;7.18;;
36799;SDS011;22752;51.960;5.886;2024-01-30T12:35:09;11.65;;;5.65;;
36799;SDS011;22752;51.960;5.886;2024-01-30T12:37:36;13.50;;;5.90;;
36799;SDS011;22752;51.960;5.886;2024-01-30T12:40:02;13.07;;;5.63;;
36799;SDS011;22752;51.960;5.886;2024-01-30T12:42:28;13.45;;;5.43;;
36799;SDS011;22752;51.960;5.886;2024-01-30T12:44:56;7.63;;;3.97;;
36799;SDS011;22752;51.960;5.886;2024-01-30T12:47:23;9.40;;;3.33;;
36799;SDS011;22752;51.960;5.886;2024-01-30T12:49:48;8.75;;;3.85;;
36799;SDS011;22752;51.960;5.886;2024-01-30T12:52:18;9.48;;;2.83;;
36799;SDS011;22752;51.960;5.886;2024-01-30T12:54:44;7.07;;;3.38;;
36799;SDS011;22752;51.960;5.886;2024-01-30T12:57:10;6.47;;;3.08;;
36799;SDS011;22752;51.960;5.886;2024-01-30T12:59:36;8.30;;;2.90;;
36799;SDS011;22752;51.960;5.886;2024-01-30T13:02:01;11.25;;;2.83;;
36799;SDS011;22752;51.960;5.886;2024-01-30T13:04:28;6.60;;;2.47;;
36799;SDS011;22752;51.960;5.886;2024-01-30T13:06:54;5.95;;;2.10;;
36799;SDS011;22752;51.960;5.886;2024-01-30T13:09:20;7.70;;;2.83;;
36799;SDS011;22752;51.960;5.886;2024-01-30T13:11:45;6.23;;;2.20;;
36799;SDS011;22752;51.960;5.886;2024-01-30T13:14:11;6.32;;;2.08;;
36799;SDS011;22752;51.960;5.886;2024-01-30T13:16:37;3.97;;;1.83;;
36799;SDS011;22752;51.960;5.886;2024-01-30T13:19:03;4.82;;;1.90;;
36799;SDS011;22752;51.960;5.886;2024-01-30T13:21:28;6.23;;;1.67;;
36799;SDS011;22752;51.960;5.886;2024-01-30T13:23:54;22.98;;;10.30;;
36799;SDS011;22752;51.960;5.886;2024-01-30T13:26:20;6.45;;;2.22;;
36799;SDS011;22752;51.960;5.886;2024-01-30T13:28:46;3.47;;;0.80;;
36799;SDS011;22752;51.960;5.886;2024-01-30T13:31:12;4.87;;;1.23;;
36799;SDS011;22752;51.960;5.886;2024-01-30T13:33:39;3.22;;;1.25;;
36799;SDS011;22752;51.960;5.886;2024-01-30T13:36:05;2.80;;;0.90;;
36799;SDS011;22752;51.960;5.886;2024-01-30T13:38:35;3.33;;;1.05;;
36799;SDS011;22752;51.960;5.886;2024-01-30T13:41:01;2.70;;;0.80;;
36799;SDS011;22752;51.960;5.886;2024-01-30T13:43:27;3.10;;;0.90;;
36799;SDS011;22752;51.960;5.886;2024-01-30T13:45:53;2.23;;;0.97;;
36799;SDS011;22752;51.960;5.886;2024-01-30T13:48:19;2.80;;;0.97;;
36799;SDS011;22752;51.960;5.886;2024-01-30T13:50:44;4.47;;;1.40;;
36799;SDS011;22752;51.960;5.886;2024-01-30T13:53:11;6.50;;;1.77;;
36799;SDS011;22752;51.960;5.886;2024-01-30T13:55:37;7.07;;;2.50;;
36799;SDS011;22752;51.960;5.886;2024-01-30T13:58:04;7.67;;;1.90;;
36799;SDS011;22752;51.960;5.886;2024-01-30T14:00:30;8.93;;;2.70;;
36799;SDS011;22752;51.960;5.886;2024-01-30T14:02:55;7.73;;;2.63;;
36799;SDS011;22752;51.960;5.886;2024-01-30T14:05:23;11.00;;;2.97;;
36799;SDS011;22752;51.960;5.886;2024-01-30T14:07:49;8.80;;;3.03;;
36799;SDS011;22752;51.960;5.886;2024-01-30T14:10:16;10.93;;;3.40;;
36799;SDS011;22752;51.960;5.886;2024-01-30T14:12:42;12.47;;;3.57;;
36799;SDS011;22752;51.960;5.886;2024-01-30T14:15:13;14.53;;;3.70;;
36799;SDS011;22752;51.960;5.886;2024-01-30T14:17:39;8.60;;;4.60;;
36799;SDS011;22752;51.960;5.886;2024-01-30T14:20:05;11.13;;;4.47;;
36799;SDS011;22752;51.960;5.886;2024-01-30T14:22:33;15.57;;;4.50;;
36799;SDS011;22752;51.960;5.886;2024-01-30T14:24:59;10.73;;;4.80;;
36799;SDS011;22752;51.960;5.886;2024-01-30T14:27:25;16.83;;;4.57;;
36799;SDS011;22752;51.960;5.886;2024-01-30T14:29:51;12.00;;;4.17;;
36799;SDS011;22752;51.960;5.886;2024-01-30T14:32:16;11.03;;;4.27;;
36799;SDS011;22752;51.960;5.886;2024-01-30T14:34:42;12.20;;;4.40;;
36799;SDS011;22752;51.960;5.886;2024-01-30T14:37:08;10.80;;;3.77;;
36799;SDS011;22752;51.960;5.886;2024-01-30T14:39:33;9.13;;;3.27;;
36799;SDS011;22752;51.960;5.886;2024-01-30T14:42:02;8.23;;;3.00;;
36799;SDS011;22752;51.960;5.886;2024-01-30T14:44:28;11.80;;;3.53;;
36799;SDS011;22752;51.960;5.886;2024-01-30T14:46:55;12.00;;;4.03;;
36799;SDS011;22752;51.960;5.886;2024-01-30T14:49:21;8.67;;;3.27;;
36799;SDS011;22752;51.960;5.886;2024-01-30T14:51:47;10.63;;;3.50;;
36799;SDS011;22752;51.960;5.886;2024-01-30T14:54:12;9.73;;;4.00;;
36799;SDS011;22752;51.960;5.886;2024-01-30T14:56:38;8.63;;;3.57;;
36799;SDS011;22752;51.960;5.886;2024-01-30T14:59:04;7.13;;;3.10;;
36799;SDS011;22752;51.960;5.886;2024-01-30T15:01:30;8.57;;;3.50;;
36799;SDS011;22752;51.960;5.886;2024-01-30T15:03:55;6.43;;;3.03;;
36799;SDS011;22752;51.960;5.886;2024-01-30T15:06:21;5.97;;;2.67;;
36799;SDS011;22752;51.960;5.886;2024-01-30T15:08:49;5.67;;;2.80;;
36799;SDS011;22752;51.960;5.886;2024-01-30T15:11:15;6.73;;;2.80;;
36799;SDS011;22752;51.960;5.886;2024-01-30T15:13:41;6.97;;;2.60;;
36799;SDS011;22752;51.960;5.886;2024-01-30T15:16:07;5.53;;;2.20;;
36799;SDS011;22752;51.960;5.886;2024-01-30T15:18:32;8.13;;;2.73;;
36799;SDS011;22752;51.960;5.886;2024-01-30T15:20:58;6.33;;;2.53;;
36799;SDS011;22752;51.960;5.886;2024-01-30T15:23:24;7.87;;;2.67;;
36799;SDS011;22752;51.960;5.886;2024-01-30T15:25:49;7.53;;;2.60;;
36799;SDS011;22752;51.960;5.886;2024-01-30T15:28:15;7.10;;;2.70;;
36799;SDS011;22752;51.960;5.886;2024-01-30T15:30:42;4.67;;;2.50;;
36799;SDS011;22752;51.960;5.886;2024-01-30T15:33:11;6.13;;;2.50;;
36799;SDS011;22752;51.960;5.886;2024-01-30T15:35:37;5.43;;;2.60;;
36799;SDS011;22752;51.960;5.886;2024-01-30T15:38:03;7.83;;;2.33;;
36799;SDS011;22752;51.960;5.886;2024-01-30T15:40:33;8.13;;;3.37;;
36799;SDS011;22752;51.960;5.886;2024-01-30T15:42:59;5.80;;;3.17;;
36799;SDS011;22752;51.960;5.886;2024-01-30T15:45:25;8.50;;;3.70;;
36799;SDS011;22752;51.960;5.886;2024-01-30T15:47:51;5.93;;;2.77;;
36799;SDS011;22752;51.960;5.886;2024-01-30T15:50:16;5.80;;;2.50;;
36799;SDS011;22752;51.960;5.886;2024-01-30T15:52:42;4.60;;;2.63;;
36799;SDS011;22752;51.960;5.886;2024-01-30T15:55:08;5.60;;;3.20;;
36799;SDS011;22752;51.960;5.886;2024-01-30T15:57:34;8.00;;;4.03;;
36799;SDS011;22752;51.960;5.886;2024-01-30T15:59:59;8.27;;;3.87;;
36799;SDS011;22752;51.960;5.886;2024-01-30T16:02:26;6.37;;;3.63;;
36799;SDS011;22752;51.960;5.886;2024-01-30T16:04:52;9.50;;;4.83;;
36799;SDS011;22752;51.960;5.886;2024-01-30T16:07:18;12.70;;;6.10;;
36799;SDS011;22752;51.960;5.886;2024-01-30T16:09:43;8.87;;;4.70;;
36799;SDS011;22752;51.960;5.886;2024-01-30T16:12:10;10.73;;;4.83;;
36799;SDS011;22752;51.960;5.886;2024-01-30T16:14:35;8.10;;;4.57;;
36799;SDS011;22752;51.960;5.886;2024-01-30T16:17:01;4.40;;;4.00;;
36799;SDS011;22752;51.960;5.886;2024-01-30T16:19:27;6.27;;;4.03;;
36799;SDS011;22752;51.960;5.886;2024-01-30T16:21:53;8.33;;;4.57;;
36799;SDS011;22752;51.960;5.886;2024-01-30T16:24:19;11.57;;;6.23;;
36799;SDS011;22752;51.960;5.886;2024-01-30T16:26:47;5.53;;;4.60;;
36799;SDS011;22752;51.960;5.886;2024-01-30T16:29:13;8.87;;;5.40;;
36799;SDS011;22752;51.960;5.886;2024-01-30T16:31:39;6.03;;;4.90;;
36799;SDS011;22752;51.960;5.886;2024-01-30T16:34:05;7.90;;;5.63;;
36799;SDS011;22752;51.960;5.886;2024-01-30T16:36:30;6.43;;;4.93;;
36799;SDS011;22752;51.960;5.886;2024-01-30T16:38:56;7.17;;;5.63;;
36799;SDS011;22752;51.960;5.886;2024-01-30T16:41:23;6.07;;;5.30;;
36799;SDS011;22752;51.960;5.886;2024-01-30T16:43:50;7.73;;;5.63;;
36799;SDS011;22752;51.960;5.886;2024-01-30T16:46:16;10.67;;;5.67;;
36799;SDS011;22752;51.960;5.886;2024-01-30T16:48:42;11.03;;;7.60;;
36799;SDS011;22752;51.960;5.886;2024-01-30T16:51:07;7.67;;;6.70;;
36799;SDS011;22752;51.960;5.886;2024-01-30T16:53:33;11.73;;;8.23;;
36799;SDS011;22752;51.960;5.886;2024-01-30T16:55:59;10.47;;;7.40;;
36799;SDS011;22752;51.960;5.886;2024-01-30T16:58:24;8.93;;;7.50;;
36799;SDS011;22752;51.960;5.886;2024-01-30T17:00:50;9.37;;;7.30;;
36799;SDS011;22752;51.960;5.886;2024-01-30T17:03:16;11.30;;;7.80;;
36799;SDS011;22752;51.960;5.886;2024-01-30T17:05:41;10.47;;;7.57;;
36799;SDS011;22752;51.960;5.886;2024-01-30T17:08:08;9.30;;;6.60;;
36799;SDS011;22752;51.960;5.886;2024-01-30T17:10:34;8.07;;;7.27;;
36799;SDS011;22752;51.960;5.886;2024-01-30T17:13:00;9.83;;;7.50;;
36799;SDS011;22752;51.960;5.886;2024-01-30T17:15:25;9.60;;;8.33;;
36799;SDS011;22752;51.960;5.886;2024-01-30T17:17:51;13.13;;;8.73;;
36799;SDS011;22752;51.960;5.886;2024-01-30T17:20:18;11.27;;;9.33;;
36799;SDS011;22752;51.960;5.886;2024-01-30T17:22:44;13.43;;;8.53;;
36799;SDS011;22752;51.960;5.886;2024-01-30T17:25:10;10.13;;;9.23;;
36799;SDS011;22752;51.960;5.886;2024-01-30T17:27:36;10.80;;;9.00;;
36799;SDS011;22752;51.960;5.886;2024-01-30T17:30:02;11.00;;;8.53;;
36799;SDS011;22752;51.960;5.886;2024-01-30T17:32:29;12.10;;;9.60;;
36799;SDS011;22752;51.960;5.886;2024-01-30T17:34:56;12.27;;;10.30;;
36799;SDS011;22752;51.960;5.886;2024-01-30T17:37:22;10.60;;;9.50;;
36799;SDS011;22752;51.960;5.886;2024-01-30T17:39:47;11.93;;;9.57;;
36799;SDS011;22752;51.960;5.886;2024-01-30T17:42:13;13.43;;;9.60;;
36799;SDS011;22752;51.960;5.886;2024-01-30T17:44:40;13.07;;;9.37;;
36799;SDS011;22752;51.960;5.886;2024-01-30T17:47:06;10.70;;;9.60;;
36799;SDS011;22752;51.960;5.886;2024-01-30T17:49:34;11.90;;;9.50;;
36799;SDS011;22752;51.960;5.886;2024-01-30T17:52:00;11.37;;;9.87;;
36799;SDS011;22752;51.960;5.886;2024-01-30T17:54:26;10.70;;;9.03;;
36799;SDS011;22752;51.960;5.886;2024-01-30T17:56:52;11.80;;;10.13;;
36799;SDS011;22752;51.960;5.886;2024-01-30T17:59:18;13.17;;;11.03;;
36799;SDS011;22752;51.960;5.886;2024-01-30T18:01:49;13.20;;;11.47;;
36799;SDS011;22752;51.960;5.886;2024-01-30T18:04:15;14.80;;;11.70;;
36799;SDS011;22752;51.960;5.886;2024-01-30T18:06:51;12.70;;;11.07;;
36799;SDS011;22752;51.960;5.886;2024-01-30T18:09:23;13.17;;;11.53;;
36799;SDS011;22752;51.960;5.886;2024-01-30T18:11:50;14.90;;;11.73;;
36799;SDS011;22752;51.960;5.886;2024-01-30T18:14:17;14.13;;;12.63;;
36799;SDS011;22752;51.960;5.886;2024-01-30T18:16:43;16.00;;;10.40;;
36799;SDS011;22752;51.960;5.886;2024-01-30T18:19:08;14.60;;;11.73;;
36799;SDS011;22752;51.960;5.886;2024-01-30T18:21:34;14.13;;;11.77;;
36799;SDS011;22752;51.960;5.886;2024-01-30T18:24:00;11.63;;;10.33;;
36799;SDS011;22752;51.960;5.886;2024-01-30T18:26:26;12.67;;;11.37;;
36799;SDS011;22752;51.960;5.886;2024-01-30T18:28:52;14.00;;;11.67;;
36799;SDS011;22752;51.960;5.886;2024-01-30T18:31:21;16.67;;;11.40;;
36799;SDS011;22752;51.960;5.886;2024-01-30T18:33:50;14.20;;;10.57;;
36799;SDS011;22752;51.960;5.886;2024-01-30T18:36:18;13.97;;;11.93;;
36799;SDS011;22752;51.960;5.886;2024-01-30T18:38:47;14.83;;;12.47;;
36799;SDS011;22752;51.960;5.886;2024-01-30T18:41:16;15.10;;;13.20;;
36799;SDS011;22752;51.960;5.886;2024-01-30T18:43:42;15.90;;;13.30;;
36799;SDS011;22752;51.960;5.886;2024-01-30T18:46:09;13.27;;;11.00;;
36799;SDS011;22752;51.960;5.886;2024-01-30T18:48:38;15.70;;;13.37;;
36799;SDS011;22752;51.960;5.886;2024-01-30T18:51:05;16.43;;;11.67;;
36799;SDS011;22752;51.960;5.886;2024-01-30T18:53:31;16.13;;;12.50;;
36799;SDS011;22752;51.960;5.886;2024-01-30T18:55:57;12.80;;;11.37;;
36799;SDS011;22752;51.960;5.886;2024-01-30T18:58:23;15.93;;;12.40;;
36799;SDS011;22752;51.960;5.886;2024-01-30T19:00:49;13.60;;;10.70;;
36799;SDS011;22752;51.960;5.886;2024-01-30T19:03:15;10.47;;;9.20;;
36799;SDS011;22752;51.960;5.886;2024-01-30T19:05:42;10.87;;;8.77;;
36799;SDS011;22752;51.960;5.886;2024-01-30T19:08:08;9.60;;;7.37;;
36799;SDS011;22752;51.960;5.886;2024-01-30T19:10:34;7.90;;;6.77;;